KGON/GON METAR and TAF weather

Enter ICAO airport designator
Station Type Date Time Source
KGON METAR 2022/12/08 12:56 UTC NOAA

KGON 081256Z 32009KT 10SM CLR 10/06 A3016 RMK AO2 SLP211 T01000056


Station Type Date Time Source
KGON Decoded METAR 2022/12/08 12:56 UTC NOAA

GROTON/NEW LONDON AIRPORT , CT, United States (KGON) 41-20N 72-03W 3M
Dec 08, 2022 - 07:56 AM EST / 2022.12.08 1256 UTC
Wind: from the NW (320 degrees) at 10 MPH (9 KT):0
Visibility: 10 mile(s):0
Sky conditions: clear
Temperature: 50.0 F (10.0 C)
Dew Point: 42.1 F (5.6 C)
Relative Humidity: 74%
Pressure (altimeter): 30.16 in. Hg (1021 hPa)
ob: KGON 081256Z 32009KT 10SM CLR 10/06 A3016 RMK AO2 SLP211 T01000056
cycle: 13

Station Type Date Time Source
KGON TAF 2022/12/08 12:22 UTC NOAA

TAF KGON 081120Z 0812/0912 33009KT P6SM FEW250
FM081500 33012G20KT P6SM FEW035 SCT250
FM082100 33011KT P6SM FEW035 SCT250
FM090300 35008KT P6SM SCT250

Example: see airport list